Weather History for Wise, VA

Change the Weather History Date:

Friday, November 5, 2010

  Actual Average Record
Temperature  
Mean Temperature 36 °F -  
Max Temperature 39 °F 55 °F 69 °F (2003)
Min Temperature 33 °F 37 °F 26 °F (1997)
Degree Days  
Heating Degree Days 29    
Moisture  
Dew Point 35 °F    
Average Humidity 95    
Maximum Humidity 100    
Minimum Humidity 81    
Precipitation  
Precipitation 0.00 in - - ()
Sea Level Pressure  
Sea Level Pressure 29.72 in    
Wind  
Wind Speed 7 mph (WNW)    
Max Wind Speed 12 mph    
Max Gust Speed 20 mph    
Visibility 7 miles    
Events      
Averages and records for this station are not official NWS values.
T = Trace of Precipitation, MM = Missing Value Source: NWS Daily Summary

Daily Weather History Graph

Daily Weather History Graph

Search for Another Location

Airport:

Trip Planner

Search our weather history database for the weather conditions in past years. The results will help you decide how hot, cold, wet, or windy it might be!

Date:

Astronomy

Nov. 05, 2010 Rise Set
Actual Time 7:58 AM EDT 6:28 PM EDT
Civil Twilight 7:31 AM EDT 6:55 PM EDT
Nautical Twilight 7:00 AM EDT 7:26 PM EDT
Astronomical Twilight 6:29 AM EDT 7:57 PM EDT
Moon 7:20 AM EDT (11/5) 5:52 PM EDT (11/5)
Length of Visible Light 11h 24m
Length of Day
10h 30m
Waning Crescent, 0% of the Moon is Illuminated
Nov 5
Waning Crescent
Nov 6
New
Nov 13
First Quarter
Nov 21
Full
Nov 28
Last Quarter

Hourly Weather History & Observations

Time (EDT) Temp. Windchill Dew Point Humidity Pressure Visibility Wind Dir Wind Speed Gust Speed Precip Events Conditions
12:00 AM 37.4 °F 29.8 °F 35.6 °F 93% 29.64 in 10.0 mi WNW 11.5 mph - N/A   Mostly Cloudy
12:20 AM 37.4 °F 30.3 °F 35.6 °F 93% 29.64 in 10.0 mi WNW 10.4 mph 16.1 mph N/A   Mostly Cloudy
12:40 AM 37.4 °F 31.4 °F 35.6 °F 93% 29.64 in 10.0 mi WNW 8.1 mph - N/A   Mostly Cloudy
1:00 AM 37.4 °F 32.1 °F 35.6 °F 93% 29.64 in 10.0 mi West 6.9 mph - N/A   Overcast
1:20 AM 37.4 °F 32.1 °F 35.6 °F 93% 29.64 in 10.0 mi WNW 6.9 mph - N/A   Mostly Cloudy
1:40 AM 37.4 °F 31.4 °F 35.6 °F 93% 29.65 in 10.0 mi WNW 8.1 mph - N/A   Overcast
2:00 AM 37.4 °F 33.8 °F 35.6 °F 93% 29.65 in 10.0 mi WNW 4.6 mph - N/A   Overcast
2:20 AM 37.4 °F 32.8 °F 35.6 °F 93% 29.65 in 10.0 mi WNW 5.8 mph - N/A   Overcast
2:40 AM 37.4 °F 33.8 °F 35.6 °F 93% 29.65 in 10.0 mi West 4.6 mph - N/A   Overcast
3:00 AM 37.4 °F 32.1 °F 35.6 °F 93% 29.65 in 10.0 mi WNW 6.9 mph - N/A   Overcast
3:20 AM 37.4 °F 32.8 °F 35.6 °F 93% 29.65 in 10.0 mi WNW 5.8 mph - N/A   Overcast
3:40 AM 37.4 °F 32.1 °F 35.6 °F 93% 29.65 in 10.0 mi West 6.9 mph - N/A   Overcast
4:00 AM 37.4 °F 32.8 °F 35.6 °F 93% 29.65 in 7.0 mi West 5.8 mph - N/A   Overcast
4:20 AM 37.4 °F 33.8 °F 35.6 °F 93% 29.65 in 10.0 mi West 4.6 mph - N/A   Overcast
4:40 AM 37.4 °F 32.1 °F 35.6 °F 93% 29.65 in 3.0 mi West 6.9 mph - N/A   Overcast
5:00 AM 35.6 °F 30.7 °F 35.6 °F 100% 29.64 in 10.0 mi WSW 5.8 mph - N/A   Overcast
5:20 AM 35.6 °F 30.7 °F 35.6 °F 100% 29.64 in 10.0 mi West 5.8 mph - N/A   Overcast
5:40 AM 35.6 °F 31.7 °F 35.6 °F 100% 29.65 in 10.0 mi WSW 4.6 mph - N/A   Overcast
6:00 AM 35.6 °F - 35.6 °F 100% 29.65 in 10.0 mi Calm Calm - N/A   Overcast
6:20 AM 35.6 °F - 35.6 °F 100% 29.66 in 10.0 mi Calm Calm - N/A   Overcast
6:40 AM 35.6 °F - 35.6 °F 100% 29.66 in 3.0 mi Calm Calm - N/A   Overcast
7:00 AM 35.6 °F 32.8 °F 35.6 °F 100% 29.67 in 3.0 mi NW 3.5 mph - N/A   Overcast
7:20 AM 35.6 °F 32.8 °F 35.6 °F 100% 29.67 in 10.0 mi West 3.5 mph - N/A   Overcast
7:40 AM 35.6 °F 31.7 °F 35.6 °F 100% 29.68 in 1.8 mi West 4.6 mph - N/A   Overcast
8:00 AM 33.8 °F 29.6 °F 33.8 °F 100% 29.68 in 0.5 mi WSW 4.6 mph - N/A   Overcast
8:20 AM 33.8 °F - 33.8 °F 100% 29.69 in 2.0 mi Calm Calm - N/A   Overcast
8:40 AM 33.8 °F 29.6 °F 33.8 °F 100% 29.71 in 0.2 mi West 4.6 mph - N/A   Overcast
9:00 AM 33.8 °F - 33.8 °F 100% 29.72 in 0.5 mi Calm Calm - N/A   Overcast
9:20 AM 33.8 °F 30.8 °F 33.8 °F 100% 29.73 in 0.8 mi WSW 3.5 mph - N/A   Overcast
9:40 AM 33.8 °F 30.8 °F 33.8 °F 100% 29.74 in 4.0 mi West 3.5 mph - N/A   Overcast
10:00 AM 33.8 °F - 33.8 °F 100% 29.74 in 1.5 mi Calm Calm - N/A   Overcast
10:38 AM 33.8 °F 29.6 °F 33.8 °F 100% 29.75 in 10.0 mi West 4.6 mph - N/A   Overcast
10:59 AM 35.6 °F 30.7 °F 35.6 °F 100% 29.76 in 10.0 mi WSW 5.8 mph - N/A   Overcast
11:18 AM 33.8 °F 29.6 °F 33.8 °F 100% 29.77 in 0.5 mi WNW 4.6 mph - N/A   Overcast
11:38 AM 33.8 °F 30.8 °F 33.8 °F 100% 29.77 in 4.0 mi WNW 3.5 mph - N/A   Overcast
11:40 AM 33.8 °F 29.6 °F 33.8 °F 100% 29.77 in 5.0 mi WNW 4.6 mph - N/A   Overcast
12:00 PM 35.6 °F 29.2 °F 33.8 °F 93% 29.78 in 1.5 mi WNW 8.1 mph - N/A   Overcast
12:20 PM 35.6 °F 32.8 °F 33.8 °F 93% 29.78 in 7.0 mi WNW 3.5 mph - N/A   Overcast
12:40 PM 37.4 °F 30.8 °F 33.8 °F 87% 29.78 in 10.0 mi WNW 9.2 mph - N/A   Overcast
1:00 PM 37.4 °F 32.1 °F 33.8 °F 87% 29.79 in - WNW 6.9 mph - N/A   Unknown
1:20 PM 37.4 °F 31.4 °F 33.8 °F 87% 29.78 in 10.0 mi West 8.1 mph - N/A   Overcast
1:40 PM 37.4 °F 31.4 °F 33.8 °F 87% 29.78 in 10.0 mi West 8.1 mph - N/A   Overcast
2:00 PM 37.4 °F 32.8 °F 33.8 °F 87% 29.78 in 10.0 mi WNW 5.8 mph - N/A   Overcast
2:20 PM 39.2 °F 34.2 °F 33.8 °F 81% 29.78 in 10.0 mi WNW 6.9 mph - N/A   Overcast
2:40 PM 35.6 °F 28.0 °F 33.8 °F 93% 29.79 in 4.0 mi NW 10.4 mph 18.4 mph N/A   Overcast
3:00 PM 35.6 °F 31.7 °F 33.8 °F 93% 29.79 in 10.0 mi WNW 4.6 mph - N/A   Overcast
3:20 PM 39.2 °F 33.0 °F 33.8 °F 81% 29.79 in 10.0 mi WNW 9.2 mph 17.3 mph N/A   Overcast
3:40 PM 37.4 °F 30.3 °F 33.8 °F 87% 29.80 in 10.0 mi WNW 10.4 mph 17.3 mph N/A   Overcast
4:00 PM 37.4 °F 30.8 °F 33.8 °F 87% 29.81 in 10.0 mi WNW 9.2 mph - N/A   Overcast
4:20 PM 37.4 °F 31.4 °F 33.8 °F 87% 29.82 in 10.0 mi WNW 8.1 mph - N/A   Overcast
4:40 PM 35.6 °F 27.5 °F 33.8 °F 93% 29.83 in 10.0 mi WNW 11.5 mph 19.6 mph N/A   Overcast
5:00 PM 35.6 °F 29.2 °F 33.8 °F 93% 29.84 in 2.0 mi WNW 8.1 mph - N/A   Overcast
5:20 PM 33.8 °F 25.3 °F 33.8 °F 100% 29.85 in 0.8 mi WNW 11.5 mph 17.3 mph N/A   Overcast
5:40 PM 33.8 °F 26.4 °F 33.8 °F 100% 29.86 in 1.0 mi WNW 9.2 mph - N/A   Overcast
6:00 PM 33.8 °F 28.6 °F 33.8 °F 100% 29.87 in 5.0 mi WNW 5.8 mph - N/A   Overcast
6:20 PM 33.8 °F 29.6 °F 33.8 °F 100% 29.87 in 10.0 mi WNW 4.6 mph - N/A   Mostly Cloudy
6:40 PM 33.8 °F 27.0 °F 32.0 °F 93% 29.88 in 10.0 mi NW 8.1 mph - N/A   Mostly Cloudy
7:00 PM 33.8 °F 27.7 °F 32.0 °F 93% 29.90 in 10.0 mi NW 6.9 mph 16.1 mph N/A   Scattered Clouds
7:20 PM 33.8 °F 27.0 °F 32.0 °F 93% 29.91 in 10.0 mi WNW 8.1 mph - N/A   Mostly Cloudy
7:40 PM 33.8 °F 26.4 °F 32.0 °F 93% 29.92 in 10.0 mi NW 9.2 mph 16.1 mph N/A   Overcast
8:00 PM 33.8 °F 30.8 °F 32.0 °F 93% 29.93 in 10.0 mi NW 3.5 mph - N/A   Overcast
8:20 PM 33.8 °F 26.4 °F 32.0 °F 93% 29.93 in 10.0 mi WNW 9.2 mph - N/A   Overcast
8:40 PM 33.8 °F 27.0 °F 30.2 °F 87% 29.94 in 10.0 mi WNW 8.1 mph - N/A   Overcast
9:00 PM 33.8 °F 27.0 °F 30.2 °F 87% 29.95 in 10.0 mi WNW 8.1 mph - N/A   Overcast
9:20 PM 33.8 °F 27.7 °F 30.2 °F 87% 29.96 in 10.0 mi WNW 6.9 mph - N/A   Overcast
9:40 PM 33.8 °F 28.6 °F 30.2 °F 87% 29.97 in 10.0 mi WNW 5.8 mph - N/A   Overcast
10:00 PM 33.8 °F - 30.2 °F 87% 29.98 in 10.0 mi Calm Calm - N/A   Overcast
10:20 PM 33.8 °F - 30.2 °F 87% 29.99 in 10.0 mi Calm Calm - N/A   Overcast
11:00 PM 33.8 °F - 30.2 °F 87% 30.00 in 10.0 mi Calm Calm - N/A   Overcast
11:20 PM 33.8 °F - 30.2 °F 87% 30.00 in 10.0 mi Calm Calm - N/A   Overcast
11:40 PM 33.8 °F - 30.2 °F 87% 30.00 in 10.0 mi Calm Calm - N/A   Overcast